sensor_id;sensor_type;location;lat;lon;timestamp;pressure;altitude;pressure_sealevel;temperature;humidity
21234;BME280;10774;42.178;26.578;2023-02-28T00:02:16;100637.47;;;11.38;96.35
21234;BME280;10774;42.178;26.578;2023-02-28T00:04:43;100641.38;;;11.32;96.60
21234;BME280;10774;42.178;26.578;2023-02-28T00:07:09;100661.84;;;11.35;96.44
21234;BME280;10774;42.178;26.578;2023-02-28T00:09:34;100664.00;;;11.28;96.43
21234;BME280;10774;42.178;26.578;2023-02-28T00:12:00;100668.09;;;11.35;96.65
21234;BME280;10774;42.178;26.578;2023-02-28T00:14:25;100664.34;;;11.38;96.30
21234;BME280;10774;42.178;26.578;2023-02-28T00:16:50;100652.34;;;11.45;95.05
21234;BME280;10774;42.178;26.578;2023-02-28T00:19:16;100646.34;;;11.40;95.09
21234;BME280;10774;42.178;26.578;2023-02-28T00:21:41;100649.38;;;11.34;96.21
21234;BME280;10774;42.178;26.578;2023-02-28T00:24:08;100645.28;;;11.42;95.78
21234;BME280;10774;42.178;26.578;2023-02-28T00:26:33;100656.84;;;11.29;95.87
21234;BME280;10774;42.178;26.578;2023-02-28T00:28:59;100661.06;;;11.33;95.64
21234;BME280;10774;42.178;26.578;2023-02-28T00:31:24;100665.03;;;10.77;98.57
21234;BME280;10774;42.178;26.578;2023-02-28T00:33:49;100666.56;;;10.98;98.60
21234;BME280;10774;42.178;26.578;2023-02-28T00:36:16;100665.88;;;11.10;97.46
21234;BME280;10774;42.178;26.578;2023-02-28T00:38:42;100680.81;;;11.16;96.87
21234;BME280;10774;42.178;26.578;2023-02-28T00:41:08;100682.09;;;11.09;96.33
21234;BME280;10774;42.178;26.578;2023-02-28T00:43:35;100694.47;;;11.11;95.23
21234;BME280;10774;42.178;26.578;2023-02-28T00:46:02;100690.06;;;11.10;95.44
21234;BME280;10774;42.178;26.578;2023-02-28T00:48:27;100683.66;;;10.80;94.70
21234;BME280;10774;42.178;26.578;2023-02-28T00:50:53;100694.88;;;10.88;95.73
21234;BME280;10774;42.178;26.578;2023-02-28T00:53:18;100695.03;;;10.85;95.20
21234;BME280;10774;42.178;26.578;2023-02-28T00:55:43;100700.34;;;10.86;95.36
21234;BME280;10774;42.178;26.578;2023-02-28T00:58:09;100702.75;;;10.91;94.16
21234;BME280;10774;42.178;26.578;2023-02-28T01:03:08;100699.34;;;11.05;93.89
21234;BME280;10774;42.178;26.578;2023-02-28T01:05:34;100690.22;;;11.07;92.67
21234;BME280;10774;42.178;26.578;2023-02-28T01:07:59;100675.06;;;11.06;92.87
21234;BME280;10774;42.178;26.578;2023-02-28T01:10:25;100697.22;;;10.94;93.08
21234;BME280;10774;42.178;26.578;2023-02-28T01:12:52;100699.66;;;10.98;92.35
21234;BME280;10774;42.178;26.578;2023-02-28T01:15:18;100708.84;;;10.94;92.88
21234;BME280;10774;42.178;26.578;2023-02-28T01:17:43;100713.19;;;10.97;92.62
21234;BME280;10774;42.178;26.578;2023-02-28T01:20:09;100701.97;;;10.89;92.35
21234;BME280;10774;42.178;26.578;2023-02-28T01:22:35;100699.38;;;10.70;92.77
21234;BME280;10774;42.178;26.578;2023-02-28T01:25:00;100695.91;;;10.68;93.72
21234;BME280;10774;42.178;26.578;2023-02-28T01:27:25;100689.69;;;10.67;93.34
21234;BME280;10774;42.178;26.578;2023-02-28T01:29:52;100694.50;;;10.61;93.53
21234;BME280;10774;42.178;26.578;2023-02-28T01:32:17;100705.63;;;10.53;93.76
21234;BME280;10774;42.178;26.578;2023-02-28T01:34:42;100716.31;;;10.55;94.33
21234;BME280;10774;42.178;26.578;2023-02-28T01:37:08;100726.31;;;10.51;94.22
21234;BME280;10774;42.178;26.578;2023-02-28T01:39:33;100725.69;;;10.46;94.25
21234;BME280;10774;42.178;26.578;2023-02-28T01:41:59;100722.50;;;10.38;95.08
21234;BME280;10774;42.178;26.578;2023-02-28T01:45:00;100716.22;;;10.39;95.50
21234;BME280;10774;42.178;26.578;2023-02-28T01:47:36;100719.06;;;10.36;95.42
21234;BME280;10774;42.178;26.578;2023-02-28T01:50:06;100727.25;;;10.33;95.94
21234;BME280;10774;42.178;26.578;2023-02-28T01:52:32;100731.06;;;10.29;95.61
21234;BME280;10774;42.178;26.578;2023-02-28T01:55:00;100736.09;;;10.35;95.85
21234;BME280;10774;42.178;26.578;2023-02-28T01:57:32;100727.84;;;10.20;96.27
21234;BME280;10774;42.178;26.578;2023-02-28T02:00:15;100735.97;;;10.19;96.49
21234;BME280;10774;42.178;26.578;2023-02-28T02:02:43;100747.56;;;10.19;97.52
21234;BME280;10774;42.178;26.578;2023-02-28T02:07:44;100739.00;;;10.11;98.00
21234;BME280;10774;42.178;26.578;2023-02-28T02:10:19;100752.50;;;10.10;98.58
21234;BME280;10774;42.178;26.578;2023-02-28T02:15:36;100739.19;;;10.08;99.24
21234;BME280;10774;42.178;26.578;2023-02-28T02:23:46;100750.91;;;10.06;100.00
21234;BME280;10774;42.178;26.578;2023-02-28T02:37:56;100762.41;;;9.72;100.00
21234;BME280;10774;42.178;26.578;2023-02-28T02:40:30;100768.72;;;9.71;100.00
21234;BME280;10774;42.178;26.578;2023-02-28T02:43:01;100774.34;;;9.64;100.00
21234;BME280;10774;42.178;26.578;2023-02-28T02:45:34;100768.50;;;9.56;100.00
21234;BME280;10774;42.178;26.578;2023-02-28T02:48:06;100777.94;;;9.65;100.00
21234;BME280;10774;42.178;26.578;2023-02-28T02:50:38;100781.84;;;9.77;100.00
21234;BME280;10774;42.178;26.578;2023-02-28T02:53:06;100767.25;;;9.63;100.00
21234;BME280;10774;42.178;26.578;2023-02-28T02:55:41;100768.19;;;9.62;100.00
21234;BME280;10774;42.178;26.578;2023-02-28T02:58:14;100776.88;;;9.49;100.00
21234;BME280;10774;42.178;26.578;2023-02-28T03:00:49;100774.16;;;9.50;100.00
21234;BME280;10774;42.178;26.578;2023-02-28T03:03:18;100786.44;;;9.54;100.00
21234;BME280;10774;42.178;26.578;2023-02-28T03:05:50;100782.84;;;9.55;100.00
21234;BME280;10774;42.178;26.578;2023-02-28T03:08:16;100791.59;;;9.59;100.00
21234;BME280;10774;42.178;26.578;2023-02-28T03:10:46;100792.75;;;9.53;100.00
21234;BME280;10774;42.178;26.578;2023-02-28T03:21:15;100772.25;;;9.52;100.00
21234;BME280;10774;42.178;26.578;2023-02-28T03:24:03;100769.56;;;9.52;100.00
21234;BME280;10774;42.178;26.578;2023-02-28T03:26:34;100768.78;;;9.50;100.00
21234;BME280;10774;42.178;26.578;2023-02-28T03:29:17;100775.28;;;9.45;100.00
21234;BME280;10774;42.178;26.578;2023-02-28T03:32:16;100779.91;;;9.41;100.00
21234;BME280;10774;42.178;26.578;2023-02-28T03:34:46;100785.56;;;9.35;100.00
21234;BME280;10774;42.178;26.578;2023-02-28T03:37:16;100791.72;;;9.37;100.00
21234;BME280;10774;42.178;26.578;2023-02-28T03:39:47;100777.03;;;9.46;100.00
21234;BME280;10774;42.178;26.578;2023-02-28T03:42:19;100792.38;;;9.42;100.00
21234;BME280;10774;42.178;26.578;2023-02-28T03:45:13;100799.75;;;9.37;100.00
21234;BME280;10774;42.178;26.578;2023-02-28T03:50:18;100817.72;;;9.35;100.00
21234;BME280;10774;42.178;26.578;2023-02-28T03:52:50;100810.19;;;9.43;100.00
21234;BME280;10774;42.178;26.578;2023-02-28T03:55:18;100801.63;;;9.35;100.00
21234;BME280;10774;42.178;26.578;2023-02-28T04:00:31;100801.25;;;9.24;100.00
21234;BME280;10774;42.178;26.578;2023-02-28T04:02:58;100799.38;;;9.26;100.00
21234;BME280;10774;42.178;26.578;2023-02-28T04:05:24;100803.53;;;9.12;100.00
21234;BME280;10774;42.178;26.578;2023-02-28T04:07:50;100798.63;;;9.22;100.00
21234;BME280;10774;42.178;26.578;2023-02-28T04:10:16;100788.06;;;9.19;100.00
21234;BME280;10774;42.178;26.578;2023-02-28T04:12:42;100789.22;;;9.32;100.00
21234;BME280;10774;42.178;26.578;2023-02-28T04:15:08;100791.44;;;9.23;100.00
21234;BME280;10774;42.178;26.578;2023-02-28T04:17:34;100803.94;;;9.03;100.00
21234;BME280;10774;42.178;26.578;2023-02-28T04:19:59;100795.94;;;9.22;100.00
21234;BME280;10774;42.178;26.578;2023-02-28T04:22:24;100807.41;;;9.26;100.00
21234;BME280;10774;42.178;26.578;2023-02-28T04:24:51;100797.91;;;9.19;100.00
21234;BME280;10774;42.178;26.578;2023-02-28T04:27:18;100800.31;;;9.04;100.00
21234;BME280;10774;42.178;26.578;2023-02-28T04:29:44;100796.09;;;9.19;100.00
21234;BME280;10774;42.178;26.578;2023-02-28T04:32:10;100794.28;;;9.20;100.00
21234;BME280;10774;42.178;26.578;2023-02-28T04:34:35;100789.88;;;9.19;100.00
21234;BME280;10774;42.178;26.578;2023-02-28T04:37:01;100798.41;;;9.27;100.00
21234;BME280;10774;42.178;26.578;2023-02-28T04:39:28;100798.69;;;9.21;100.00
21234;BME280;10774;42.178;26.578;2023-02-28T04:41:55;100811.31;;;9.19;100.00
21234;BME280;10774;42.178;26.578;2023-02-28T04:44:21;100818.50;;;9.16;100.00
21234;BME280;10774;42.178;26.578;2023-02-28T04:46:47;100819.25;;;9.20;100.00
21234;BME280;10774;42.178;26.578;2023-02-28T04:49:14;100823.75;;;9.20;100.00
21234;BME280;10774;42.178;26.578;2023-02-28T04:51:39;100825.88;;;9.11;100.00
21234;BME280;10774;42.178;26.578;2023-02-28T04:54:05;100831.66;;;9.02;100.00
21234;BME280;10774;42.178;26.578;2023-02-28T04:56:31;100837.53;;;9.10;100.00
21234;BME280;10774;42.178;26.578;2023-02-28T04:58:57;100848.81;;;9.19;100.00
21234;BME280;10774;42.178;26.578;2023-02-28T05:01:24;100853.06;;;9.23;100.00
21234;BME280;10774;42.178;26.578;2023-02-28T05:03:50;100871.41;;;9.32;100.00
21234;BME280;10774;42.178;26.578;2023-02-28T05:06:17;100863.94;;;9.40;100.00
21234;BME280;10774;42.178;26.578;2023-02-28T05:08:43;100861.09;;;9.23;100.00
21234;BME280;10774;42.178;26.578;2023-02-28T05:11:21;100859.72;;;9.34;100.00
21234;BME280;10774;42.178;26.578;2023-02-28T05:13:48;100863.66;;;9.26;100.00
21234;BME280;10774;42.178;26.578;2023-02-28T05:16:13;100875.59;;;9.39;100.00
21234;BME280;10774;42.178;26.578;2023-02-28T05:18:39;100871.16;;;9.38;100.00
21234;BME280;10774;42.178;26.578;2023-02-28T05:21:05;100875.13;;;9.29;100.00
21234;BME280;10774;42.178;26.578;2023-02-28T05:23:30;100889.66;;;9.44;100.00
21234;BME280;10774;42.178;26.578;2023-02-28T05:25:56;100891.00;;;9.34;100.00
21234;BME280;10774;42.178;26.578;2023-02-28T05:28:22;100893.25;;;9.23;100.00
21234;BME280;10774;42.178;26.578;2023-02-28T05:30:47;100901.97;;;9.28;100.00
21234;BME280;10774;42.178;26.578;2023-02-28T05:33:13;100903.72;;;9.29;100.00
21234;BME280;10774;42.178;26.578;2023-02-28T05:35:40;100902.31;;;9.40;100.00
21234;BME280;10774;42.178;26.578;2023-02-28T05:38:06;100900.69;;;9.36;100.00
21234;BME280;10774;42.178;26.578;2023-02-28T05:40:31;100903.56;;;9.32;100.00
21234;BME280;10774;42.178;26.578;2023-02-28T05:42:57;100909.47;;;9.40;100.00
21234;BME280;10774;42.178;26.578;2023-02-28T05:45:22;100911.22;;;9.41;100.00
21234;BME280;10774;42.178;26.578;2023-02-28T05:47:47;100902.25;;;9.42;100.00
21234;BME280;10774;42.178;26.578;2023-02-28T05:50:13;100907.28;;;9.50;100.00
21234;BME280;10774;42.178;26.578;2023-02-28T05:52:38;100915.34;;;9.48;100.00
21234;BME280;10774;42.178;26.578;2023-02-28T05:55:04;100925.22;;;9.48;100.00
21234;BME280;10774;42.178;26.578;2023-02-28T05:57:29;100923.13;;;9.54;100.00
21234;BME280;10774;42.178;26.578;2023-02-28T05:59:55;100929.03;;;9.62;100.00
21234;BME280;10774;42.178;26.578;2023-02-28T06:02:20;100928.75;;;9.68;100.00
21234;BME280;10774;42.178;26.578;2023-02-28T06:04:46;100930.38;;;9.73;100.00
21234;BME280;10774;42.178;26.578;2023-02-28T06:07:11;100919.09;;;9.85;100.00
21234;BME280;10774;42.178;26.578;2023-02-28T06:09:37;100936.13;;;9.63;100.00
21234;BME280;10774;42.178;26.578;2023-02-28T06:12:04;100927.41;;;9.79;100.00
21234;BME280;10774;42.178;26.578;2023-02-28T06:14:31;100932.22;;;9.91;100.00
21234;BME280;10774;42.178;26.578;2023-02-28T06:16:58;100928.25;;;10.00;100.00
21234;BME280;10774;42.178;26.578;2023-02-28T06:19:24;100923.16;;;9.93;100.00
21234;BME280;10774;42.178;26.578;2023-02-28T06:21:54;100930.19;;;9.96;100.00
21234;BME280;10774;42.178;26.578;2023-02-28T06:24:21;100935.72;;;9.93;100.00
21234;BME280;10774;42.178;26.578;2023-02-28T06:26:47;100935.38;;;10.19;100.00
21234;BME280;10774;42.178;26.578;2023-02-28T06:29:13;100939.22;;;10.14;100.00
21234;BME280;10774;42.178;26.578;2023-02-28T06:31:47;100929.31;;;9.95;100.00
21234;BME280;10774;42.178;26.578;2023-02-28T06:34:13;100937.13;;;10.20;100.00
21234;BME280;10774;42.178;26.578;2023-02-28T06:36:40;100931.75;;;10.20;100.00
21234;BME280;10774;42.178;26.578;2023-02-28T06:39:06;100936.13;;;10.23;100.00
21234;BME280;10774;42.178;26.578;2023-02-28T06:41:32;100939.91;;;10.38;100.00
21234;BME280;10774;42.178;26.578;2023-02-28T06:44:11;100931.94;;;10.36;100.00
21234;BME280;10774;42.178;26.578;2023-02-28T06:46:39;100936.13;;;10.42;100.00
21234;BME280;10774;42.178;26.578;2023-02-28T06:49:04;100944.72;;;10.50;100.00
21234;BME280;10774;42.178;26.578;2023-02-28T06:51:30;100944.53;;;10.53;100.00
21234;BME280;10774;42.178;26.578;2023-02-28T06:53:55;100939.25;;;10.52;100.00
21234;BME280;10774;42.178;26.578;2023-02-28T06:56:21;100960.94;;;10.47;100.00
21234;BME280;10774;42.178;26.578;2023-02-28T06:58:50;100960.94;;;10.66;100.00
21234;BME280;10774;42.178;26.578;2023-02-28T07:01:16;100968.28;;;10.81;100.00
21234;BME280;10774;42.178;26.578;2023-02-28T07:03:42;100968.31;;;10.80;100.00
21234;BME280;10774;42.178;26.578;2023-02-28T07:06:07;100969.13;;;10.82;100.00
21234;BME280;10774;42.178;26.578;2023-02-28T07:08:34;100966.75;;;10.57;100.00
21234;BME280;10774;42.178;26.578;2023-02-28T07:10:59;100957.75;;;10.58;100.00
21234;BME280;10774;42.178;26.578;2023-02-28T07:13:25;100963.25;;;10.73;100.00
21234;BME280;10774;42.178;26.578;2023-02-28T07:15:55;100968.41;;;10.97;100.00
21234;BME280;10774;42.178;26.578;2023-02-28T07:18:20;100964.47;;;11.21;100.00
21234;BME280;10774;42.178;26.578;2023-02-28T07:20:46;100971.44;;;11.25;100.00
21234;BME280;10774;42.178;26.578;2023-02-28T07:23:11;100973.34;;;11.58;98.07
21234;BME280;10774;42.178;26.578;2023-02-28T07:25:37;100974.28;;;11.74;96.75
21234;BME280;10774;42.178;26.578;2023-02-28T07:28:02;100972.63;;;11.55;97.58
21234;BME280;10774;42.178;26.578;2023-02-28T07:30:28;100984.41;;;11.52;97.25
21234;BME280;10774;42.178;26.578;2023-02-28T07:32:53;100977.00;;;11.40;97.13
21234;BME280;10774;42.178;26.578;2023-02-28T07:35:21;100972.72;;;11.36;97.85
21234;BME280;10774;42.178;26.578;2023-02-28T07:37:47;100964.97;;;10.93;99.46
21234;BME280;10774;42.178;26.578;2023-02-28T07:40:12;100979.47;;;11.08;99.39
21234;BME280;10774;42.178;26.578;2023-02-28T07:42:40;100988.94;;;10.98;99.34
21234;BME280;10774;42.178;26.578;2023-02-28T07:45:07;100977.84;;;10.87;100.00
21234;BME280;10774;42.178;26.578;2023-02-28T07:47:33;100988.94;;;10.98;100.00
21234;BME280;10774;42.178;26.578;2023-02-28T07:49:59;100992.41;;;11.00;100.00
21234;BME280;10774;42.178;26.578;2023-02-28T07:52:24;100978.97;;;11.00;99.71
21234;BME280;10774;42.178;26.578;2023-02-28T07:54:50;100986.59;;;11.09;99.62
21234;BME280;10774;42.178;26.578;2023-02-28T07:57:16;100985.38;;;10.97;99.76
21234;BME280;10774;42.178;26.578;2023-02-28T07:59:42;100990.66;;;10.99;100.00
21234;BME280;10774;42.178;26.578;2023-02-28T08:02:15;100989.50;;;10.86;100.00
21234;BME280;10774;42.178;26.578;2023-02-28T08:04:41;100975.28;;;11.03;100.00
21234;BME280;10774;42.178;26.578;2023-02-28T08:07:07;100982.69;;;11.34;99.08
21234;BME280;10774;42.178;26.578;2023-02-28T08:09:33;100984.91;;;11.60;97.55
21234;BME280;10774;42.178;26.578;2023-02-28T08:11:59;100978.41;;;11.99;95.17
21234;BME280;10774;42.178;26.578;2023-02-28T08:14:25;100979.84;;;11.89;94.51
21234;BME280;10774;42.178;26.578;2023-02-28T08:16:50;100970.13;;;12.19;93.94
21234;BME280;10774;42.178;26.578;2023-02-28T08:19:15;100966.25;;;12.25;90.98
21234;BME280;10774;42.178;26.578;2023-02-28T08:21:41;100964.41;;;12.25;91.52
21234;BME280;10774;42.178;26.578;2023-02-28T08:24:06;100969.59;;;12.13;91.38
21234;BME280;10774;42.178;26.578;2023-02-28T08:26:32;100973.84;;;12.50;90.23
21234;BME280;10774;42.178;26.578;2023-02-28T08:28:57;100956.16;;;11.95;92.24
21234;BME280;10774;42.178;26.578;2023-02-28T08:31:23;100945.78;;;12.05;93.07
21234;BME280;10774;42.178;26.578;2023-02-28T08:33:49;100950.84;;;12.11;91.71
21234;BME280;10774;42.178;26.578;2023-02-28T08:36:17;100942.34;;;12.19;90.49
21234;BME280;10774;42.178;26.578;2023-02-28T08:38:42;100942.59;;;12.14;91.24
21234;BME280;10774;42.178;26.578;2023-02-28T08:41:10;100951.91;;;12.24;91.44
21234;BME280;10774;42.178;26.578;2023-02-28T08:43:37;100946.03;;;12.65;90.18
21234;BME280;10774;42.178;26.578;2023-02-28T08:46:03;100957.69;;;12.81;87.66
21234;BME280;10774;42.178;26.578;2023-02-28T08:48:31;100959.91;;;12.42;88.90
21234;BME280;10774;42.178;26.578;2023-02-28T08:51:03;100954.28;;;12.62;89.53
21234;BME280;10774;42.178;26.578;2023-02-28T08:53:28;100964.28;;;12.76;87.96
21234;BME280;10774;42.178;26.578;2023-02-28T08:56:05;100974.72;;;12.98;87.46
21234;BME280;10774;42.178;26.578;2023-02-28T08:58:31;100974.78;;;13.12;86.40
21234;BME280;10774;42.178;26.578;2023-02-28T09:00:57;100984.16;;;13.21;85.64
21234;BME280;10774;42.178;26.578;2023-02-28T09:03:23;100979.38;;;13.42;84.07
21234;BME280;10774;42.178;26.578;2023-02-28T09:05:56;100985.47;;;13.45;84.34
21234;BME280;10774;42.178;26.578;2023-02-28T09:08:23;100982.06;;;13.72;81.17
21234;BME280;10774;42.178;26.578;2023-02-28T09:10:48;100989.56;;;13.67;80.30
21234;BME280;10774;42.178;26.578;2023-02-28T09:13:14;100996.28;;;13.29;82.04
21234;BME280;10774;42.178;26.578;2023-02-28T09:15:39;100999.22;;;13.41;81.91
21234;BME280;10774;42.178;26.578;2023-02-28T09:18:05;101009.31;;;13.37;81.71
21234;BME280;10774;42.178;26.578;2023-02-28T09:20:30;101003.19;;;13.33;82.46
21234;BME280;10774;42.178;26.578;2023-02-28T09:22:56;100995.53;;;13.42;81.50
21234;BME280;10774;42.178;26.578;2023-02-28T09:25:21;100977.81;;;13.06;83.84
21234;BME280;10774;42.178;26.578;2023-02-28T09:27:46;100991.53;;;13.17;84.04
21234;BME280;10774;42.178;26.578;2023-02-28T09:30:12;100980.34;;;13.41;82.09
21234;BME280;10774;42.178;26.578;2023-02-28T09:32:38;100989.66;;;13.35;82.62
21234;BME280;10774;42.178;26.578;2023-02-28T09:35:04;100981.78;;;13.46;81.71
21234;BME280;10774;42.178;26.578;2023-02-28T09:37:29;100981.97;;;13.43;81.37
21234;BME280;10774;42.178;26.578;2023-02-28T09:39:56;100970.88;;;12.86;83.21
21234;BME280;10774;42.178;26.578;2023-02-28T09:42:27;100960.09;;;12.86;85.37
21234;BME280;10774;42.178;26.578;2023-02-28T09:44:56;100958.72;;;12.95;85.07
21234;BME280;10774;42.178;26.578;2023-02-28T09:47:38;100961.25;;;12.98;84.34
21234;BME280;10774;42.178;26.578;2023-02-28T09:52:52;100964.34;;;13.06;84.42
21234;BME280;10774;42.178;26.578;2023-02-28T09:55:24;100965.78;;;12.97;84.69
21234;BME280;10774;42.178;26.578;2023-02-28T09:57:54;100962.63;;;12.89;85.23
21234;BME280;10774;42.178;26.578;2023-02-28T10:00:27;100956.78;;;12.81;85.27
21234;BME280;10774;42.178;26.578;2023-02-28T10:03:28;100951.16;;;12.86;85.87
21234;BME280;10774;42.178;26.578;2023-02-28T10:06:13;100944.72;;;12.41;86.89
21234;BME280;10774;42.178;26.578;2023-02-28T10:08:47;100943.00;;;12.07;89.00
21234;BME280;10774;42.178;26.578;2023-02-28T10:11:16;100955.34;;;12.11;90.06
21234;BME280;10774;42.178;26.578;2023-02-28T10:14:18;100949.56;;;12.18;89.73
21234;BME280;10774;42.178;26.578;2023-02-28T10:17:07;100947.03;;;12.15;90.46
21234;BME280;10774;42.178;26.578;2023-02-28T10:19:50;100929.78;;;12.02;91.07
21234;BME280;10774;42.178;26.578;2023-02-28T10:22:28;100932.03;;;11.94;91.58
21234;BME280;10774;42.178;26.578;2023-02-28T10:24:55;100919.69;;;11.90;91.90
21234;BME280;10774;42.178;26.578;2023-02-28T10:27:29;100925.84;;;12.09;91.29
21234;BME280;10774;42.178;26.578;2023-02-28T10:29:57;100918.88;;;12.05;91.78
21234;BME280;10774;42.178;26.578;2023-02-28T10:32:32;100924.47;;;12.34;91.26
21234;BME280;10774;42.178;26.578;2023-02-28T10:37:42;100926.38;;;12.95;85.58
21234;BME280;10774;42.178;26.578;2023-02-28T10:40:32;100918.84;;;13.16;85.05
21234;BME280;10774;42.178;26.578;2023-02-28T10:45:25;100915.66;;;13.09;83.93
21234;BME280;10774;42.178;26.578;2023-02-28T10:50:44;100899.09;;;13.61;81.16
21234;BME280;10774;42.178;26.578;2023-02-28T10:53:49;100909.28;;;13.56;81.36
21234;BME280;10774;42.178;26.578;2023-02-28T11:03:57;100907.53;;;13.55;80.54
21234;BME280;10774;42.178;26.578;2023-02-28T11:06:33;100910.59;;;13.34;80.73
21234;BME280;10774;42.178;26.578;2023-02-28T11:09:06;100908.78;;;13.19;81.24
21234;BME280;10774;42.178;26.578;2023-02-28T11:11:46;100914.19;;;13.03;83.58
21234;BME280;10774;42.178;26.578;2023-02-28T11:14:22;100911.41;;;13.05;83.09
21234;BME280;10774;42.178;26.578;2023-02-28T11:16:49;100908.78;;;13.19;81.96
21234;BME280;10774;42.178;26.578;2023-02-28T11:19:23;100892.47;;;12.91;83.13
21234;BME280;10774;42.178;26.578;2023-02-28T11:21:56;100890.59;;;12.77;84.09
21234;BME280;10774;42.178;26.578;2023-02-28T11:24:42;100890.94;;;12.87;83.74
21234;BME280;10774;42.178;26.578;2023-02-28T11:28:22;100895.28;;;12.73;83.80
21234;BME280;10774;42.178;26.578;2023-02-28T11:30:03;100884.69;;;12.39;86.84
21234;BME280;10774;42.178;26.578;2023-02-28T11:32:30;100891.47;;;12.46;87.20
21234;BME280;10774;42.178;26.578;2023-02-28T11:37:30;100898.44;;;12.66;85.94
21234;BME280;10774;42.178;26.578;2023-02-28T11:39:56;100898.44;;;12.66;85.01
21234;BME280;10774;42.178;26.578;2023-02-28T11:42:44;100888.53;;;12.35;87.73
21234;BME280;10774;42.178;26.578;2023-02-28T11:48:22;100882.19;;;12.36;88.09
21234;BME280;10774;42.178;26.578;2023-02-28T11:56:07;100876.69;;;12.69;85.98
21234;BME280;10774;42.178;26.578;2023-02-28T11:58:53;100890.78;;;12.58;86.02
21234;BME280;10774;42.178;26.578;2023-02-28T12:04:25;100883.81;;;12.54;86.18
21234;BME280;10774;42.178;26.578;2023-02-28T12:12:48;100876.81;;;12.51;86.06
21234;BME280;10774;42.178;26.578;2023-02-28T12:28:49;100884.84;;;12.04;89.02
21234;BME280;10774;42.178;26.578;2023-02-28T12:31:23;100884.84;;;12.04;90.38
21234;BME280;10774;42.178;26.578;2023-02-28T12:33:56;100874.69;;;11.93;90.96
21234;BME280;10774;42.178;26.578;2023-02-28T12:36:24;100883.94;;;11.88;91.13
21234;BME280;10774;42.178;26.578;2023-02-28T12:39:04;100884.56;;;11.75;91.83
21234;BME280;10774;42.178;26.578;2023-02-28T12:41:44;100889.63;;;11.31;94.16
21234;BME280;10774;42.178;26.578;2023-02-28T12:44:18;100883.28;;;11.49;94.90
21234;BME280;10774;42.178;26.578;2023-02-28T12:46:50;100879.47;;;11.53;94.44
21234;BME280;10774;42.178;26.578;2023-02-28T12:49:52;100882.72;;;11.43;94.58
21234;BME280;10774;42.178;26.578;2023-02-28T12:52:30;100882.50;;;11.30;95.60
21234;BME280;10774;42.178;26.578;2023-02-28T12:55:05;100859.81;;;11.01;97.52
21234;BME280;10774;42.178;26.578;2023-02-28T12:57:42;100859.81;;;11.01;98.28
21234;BME280;10774;42.178;26.578;2023-02-28T13:00:19;100854.94;;;11.09;98.30
21234;BME280;10774;42.178;26.578;2023-02-28T13:13:59;100855.19;;;10.51;100.00
21234;BME280;10774;42.178;26.578;2023-02-28T13:16:25;100865.09;;;10.49;100.00
21234;BME280;10774;42.178;26.578;2023-02-28T13:18:51;100881.50;;;10.43;100.00
21234;BME280;10774;42.178;26.578;2023-02-28T13:21:27;100886.22;;;10.38;100.00
21234;BME280;10774;42.178;26.578;2023-02-28T13:34:47;100871.88;;;10.39;100.00
21234;BME280;10774;42.178;26.578;2023-02-28T13:37:35;100863.72;;;10.21;100.00
21234;BME280;10774;42.178;26.578;2023-02-28T13:40:33;100872.16;;;10.33;100.00
21234;BME280;10774;42.178;26.578;2023-02-28T13:43:05;100869.25;;;10.18;100.00
21234;BME280;10774;42.178;26.578;2023-02-28T13:45:32;100860.38;;;10.16;100.00
21234;BME280;10774;42.178;26.578;2023-02-28T13:48:14;100870.13;;;10.19;100.00
21234;BME280;10774;42.178;26.578;2023-02-28T13:50:42;100859.25;;;10.03;100.00
21234;BME280;10774;42.178;26.578;2023-02-28T13:55:45;100859.78;;;9.91;100.00
21234;BME280;10774;42.178;26.578;2023-02-28T14:01:02;100856.03;;;9.95;100.00
21234;BME280;10774;42.178;26.578;2023-02-28T14:06:16;100854.59;;;9.88;100.00
21234;BME280;10774;42.178;26.578;2023-02-28T14:09:05;100860.84;;;9.49;100.00
21234;BME280;10774;42.178;26.578;2023-02-28T14:11:39;100855.25;;;9.54;100.00
21234;BME280;10774;42.178;26.578;2023-02-28T14:14:06;100851.66;;;9.55;100.00
21234;BME280;10774;42.178;26.578;2023-02-28T14:16:44;100860.63;;;9.54;100.00
21234;BME280;10774;42.178;26.578;2023-02-28T14:19:19;100861.34;;;9.57;100.00
21234;BME280;10774;42.178;26.578;2023-02-28T14:27:24;100868.59;;;9.55;100.00
21234;BME280;10774;42.178;26.578;2023-02-28T14:37:51;100864.72;;;9.22;100.00
21234;BME280;10774;42.178;26.578;2023-02-28T14:40:27;100863.13;;;9.18;100.00
21234;BME280;10774;42.178;26.578;2023-02-28T14:43:01;100872.47;;;9.28;100.00
21234;BME280;10774;42.178;26.578;2023-02-28T14:45:29;100878.78;;;9.27;100.00
21234;BME280;10774;42.178;26.578;2023-02-28T14:47:56;100877.16;;;9.23;100.00
21234;BME280;10774;42.178;26.578;2023-02-28T14:50:28;100877.59;;;9.13;100.00
21234;BME280;10774;42.178;26.578;2023-02-28T14:52:55;100886.56;;;9.12;100.00
21234;BME280;10774;42.178;26.578;2023-02-28T14:55:33;100884.13;;;9.06;100.00
21234;BME280;10774;42.178;26.578;2023-02-28T14:58:01;100880.94;;;9.19;100.00
21234;BME280;10774;42.178;26.578;2023-02-28T15:00:36;100883.00;;;9.12;100.00
21234;BME280;10774;42.178;26.578;2023-02-28T15:05:57;100891.66;;;9.19;100.00
21234;BME280;10774;42.178;26.578;2023-02-28T15:08:24;100895.53;;;9.11;100.00